Date,TemperatureHighF,TemperatureAvgF,TemperatureLowF,DewpointHighF,DewpointAvgF,DewpointLowF,HumidityHigh,HumidityAvg,HumidityLow,PressureMaxIn,PressureMinIn,WindSpeedMaxMPH,WindSpeedAvgMPH,GustSpeedMaxMPH,PrecipitationSumIn
2014-1-1,50.3,36.8,28.9,31.7,28.2,24.7,93,74,38,30.41,30.16,2,0,4,0.00
2014-1-2,45.3,39.4,33.5,42.8,36.8,31.4,97,90,79,30.16,29.63,1,0,4,0.33
2014-1-3,37.5,26.9,19.9,32.4,14.0,7.5,82,60,33,30.49,29.72,4,1,7,0.00
2014-1-4,34.1,26.9,15.9,29.2,17.6,13.4,92,70,45,30.51,30.30,2,0,3,0.00
2014-1-5,41.2,37.0,32.7,40.7,35.9,29.4,98,96,86,30.30,29.78,1,0,3,0.21
2014-1-6,44.5,35.2,12.6,44.0,26.4,-2.1,98,72,41,30.21,29.65,5,2,11,0.16
2014-1-7,25.4,15.3,7.8,10.7,0.3,-5.2,79,53,30,30.51,30.21,4,1,12,0.00
2014-1-8,44.2,25.5,13.0,20.8,13.7,7.2,90,65,29,30.62,30.49,2,0,6,0.00
2014-1-9,51.7,34.3,22.0,31.7,20.8,8.0,88,63,19,30.59,30.47,1,0,2,0.00
2014-1-10,41.6,38.7,35.6,39.6,36.5,30.5,98,92,66,30.47,30.09,1,0,4,0.94
2014-1-11,62.2,49.3,39.8,61.5,48.4,39.3,98,97,81,30.09,29.56,4,1,7,1.09
2014-1-12,57.6,44.0,32.5,46.2,34.6,30.2,96,72,38,30.16,29.69,4,1,9,0.00
2014-1-13,58.9,43.5,29.7,43.5,35.9,28.7,98,77,48,30.16,29.96,4,1,7,0.05
2014-1-14,56.7,45.1,33.5,48.8,42.7,32.5,97,92,64,29.96,29.78,3,0,4,0.29
2014-1-15,55.4,39.0,31.1,43.9,34.8,30.3,98,86,52,29.95,29.84,3,0,5,0.01
2014-1-16,43.9,33.7,27.3,31.9,24.6,20.3,94,72,40,30.04,29.92,3,0,8,0.00
2014-1-17,51.5,38.1,24.0,32.9,26.7,22.2,93,66,42,30.01,29.85,3,1,8,0.00
2014-1-18,38.9,31.0,24.9,28.7,17.5,8.6,85,59,36,30.08,29.88,4,1,7,0.00
2014-1-19,52.1,37.0,26.7,30.2,24.0,19.1,88,61,40,30.00,29.92,5,1,8,0.00
2014-1-20,63.7,40.6,24.8,33.0,26.7,23.0,94,65,22,29.92,29.79,5,1,12,0.00
2014-1-21,48.5,35.7,26.8,37.8,29.9,23.7,95,80,54,29.85,29.55,2,0,4,0.14
2014-1-22,31.3,24.1,19.0,23.8,13.1,2.6,91,65,29,30.10,29.85,3,0,6,0.00
2014-1-23,37.8,26.1,16.4,16.0,12.4,3.8,90,59,33,30.45,30.09,6,1,7,0.02
2014-1-24,27.0,17.9,9.8,9.0,-0.1,-5.2,72,46,24,30.63,30.26,3,1,10,0.00
2014-1-25,39.7,28.8,16.4,19.3,8.2,0.5,54,42,27,30.26,29.68,6,2,11,0.00
2014-1-26,52.0,37.1,19.7,30.4,20.6,15.7,90,55,27,29.97,29.82,4,1,9,0.00
2014-1-27,62.7,47.7,32.1,38.5,31.8,11.6,68,55,40,30.08,29.77,4,1,8,0.00
2014-1-28,32.1,23.0,18.9,17.2,9.0,-1.3,90,59,32,30.33,30.08,3,1,8,0.00
2014-1-29,27.1,19.9,11.0,15.3,9.2,1.6,84,65,33,30.38,30.19,2,0,6,0.03
2014-1-30,37.1,20.1,7.0,14.8,7.6,2.0,90,63,26,30.45,30.25,2,0,4,0.02
2014-1-31,53.6,31.3,15.3,23.5,16.7,11.1,89,61,22,30.26,30.14,3,0,4,0.00
2014-2-1,58.6,41.3,22.9,37.7,25.5,19.9,91,59,23,30.26,30.09,1,0,4,0.00
2014-2-2,67.0,49.6,32.3,49.6,42.0,30.4,97,77,51,30.11,29.99,4,1,7,0.00
2014-2-3,60.1,51.1,39.2,58.6,48.6,36.2,96,91,87,30.25,29.84,3,1,8,0.20
2014-2-4,39.1,37.5,35.7,37.6,35.4,32.9,97,92,88,30.39,30.09,2,1,4,0.19
2014-2-5,52.9,42.5,38.0,48.1,39.4,30.0,98,89,65,30.10,29.81,4,1,8,0.12
2014-2-6,41.6,36.3,30.3,31.6,26.2,22.6,82,67,49,30.33,30.10,2,0,6,0.00
2014-2-7,49.9,38.1,29.3,32.5,29.5,26.8,93,73,46,30.36,30.25,2,0,5,0.00
2014-2-8,53.0,39.9,33.0,34.9,31.6,29.6,89,73,49,30.27,30.11,2,0,3,0.00
2014-2-9,56.9,41.8,29.0,43.1,35.5,27.1,95,80,54,30.18,29.95,4,1,7,0.00
2014-2-10,39.1,35.2,33.2,33.8,32.0,28.9,96,89,67,30.25,30.02,1,0,3,0.06
2014-2-11,35.5,31.6,24.4,32.7,24.9,20.0,96,77,63,30.40,30.23,2,1,4,0.00
2014-2-12,26.2,24.1,21.6,21.9,18.6,15.2,93,80,63,30.43,29.86,5,2,8,0.00
2014-2-13,39.2,32.8,23.6,36.1,30.4,21.9,96,91,75,29.86,29.50,4,1,9,0.31
2014-2-14,56.9,42.3,28.5,33.5,28.4,24.1,86,61,29,29.80,29.69,4,1,9,0.62
2014-2-15,43.7,37.5,29.7,37.6,27.5,15.5,97,70,40,30.06,29.55,4,1,8,0.15
2014-2-16,51.8,37.2,29.8,31.0,25.1,18.3,87,63,40,30.17,30.02,4,1,9,0.00
2014-2-17,45.0,36.6,29.0,28.7,26.1,23.0,86,67,47,30.37,30.17,3,1,6,0.00
2014-2-18,63.9,45.4,31.2,35.2,28.6,20.4,91,58,19,30.22,30.07,3,0,5,0.00
2014-2-19,73.1,54.8,38.3,60.1,48.6,32.3,97,82,45,30.08,29.89,6,1,11,0.06
2014-2-20,74.6,60.4,45.9,58.7,49.5,38.6,92,68,51,30.16,29.92,4,1,7,0.00
2014-2-21,64.8,56.7,35.1,61.1,50.0,28.8,95,80,36,30.01,29.76,5,2,10,0.28
2014-2-22,65.7,46.2,32.0,39.1,29.2,17.9,92,61,16,30.19,30.01,2,0,4,0.00
2014-2-23,68.3,50.9,33.1,41.7,35.7,29.9,91,61,26,30.10,29.87,4,1,6,0.00
2014-2-24,60.8,47.3,34.1,41.1,28.7,18.3,90,54,20,30.13,29.87,3,1,6,0.00
2014-2-25,55.3,40.7,29.4,27.4,23.2,15.6,82,54,26,30.11,29.94,2,0,6,0.00
2014-2-26,50.8,39.0,27.6,27.4,22.5,17.4,70,52,33,29.97,29.77,3,0,5,0.00
2014-2-27,54.8,36.1,21.4,21.9,15.1,1.8,88,49,12,30.01,29.77,5,1,8,0.00
2014-2-28,45.4,34.4,27.1,20.4,15.8,10.7,65,47,31,30.31,30.01,3,1,7,0.00
2014-3-1,55.3,37.8,27.3,32.1,24.3,17.5,89,60,38,30.37,30.22,2,0,5,0.00
2014-3-2,70.4,51.3,30.1,47.7,39.3,28.3,96,68,39,30.24,29.88,5,1,8,0.00
2014-3-3,59.6,39.1,22.5,47.9,34.5,16.7,94,84,65,30.27,29.79,5,2,7,0.37
2014-3-4,37.4,26.6,16.7,20.3,15.0,9.5,82,63,41,30.38,30.23,3,1,7,0.04
2014-3-5,49.2,35.9,28.2,28.1,22.4,17.7,78,59,39,30.30,30.13,2,0,5,0.00
2014-3-6,39.9,34.1,29.6,31.0,23.6,17.1,94,67,49,30.39,30.11,4,2,10,0.16
2014-3-7,32.5,32.3,32.2,31.2,30.9,30.7,95,94,94,30.11,30.07,0,0,0,0.07
2014-3-10,47.1,47.0,46.8,38.2,37.8,37.4,71,70,69,29.82,29.82,0,0,0,0.00
2014-3-11,78.1,57.5,37.8,43.5,37.5,31.3,90,54,19,29.81,29.66,4,1,8,0.00
2014-3-12,68.4,57.2,40.6,61.0,49.2,28.2,95,75,56,29.67,29.18,7,2,18,0.27
2014-3-13,46.4,38.1,29.2,28.8,16.7,7.2,75,44,20,30.24,29.65,5,2,9,0.01
2014-3-14,60.6,42.6,23.5,26.8,21.1,15.3,91,49,20,30.33,30.08,6,2,10,0.00
2014-3-15,70.6,55.8,40.1,39.9,33.3,26.5,72,45,23,30.08,29.94,6,2,9,0.00
2014-3-16,53.3,45.0,38.1,44.1,38.2,31.5,95,79,46,30.03,29.81,5,1,7,0.52
2014-3-17,36.6,31.7,29.8,35.3,30.3,28.3,95,94,92,30.00,29.83,4,2,10,0.13
2014-3-18,38.4,32.8,28.9,37.1,31.7,27.6,97,96,94,30.19,29.98,2,0,5,0.11
2014-3-19,47.8,40.2,34.4,45.5,38.9,33.6,98,95,90,30.20,29.99,4,0,6,0.14
2014-3-20,66.4,50.3,36.9,46.4,34.4,19.0,98,63,18,30.05,29.94,5,1,10,0.01
2014-3-21,68.1,49.1,30.1,36.5,30.7,26.4,92,55,23,30.17,30.03,5,1,9,0.06
2014-3-22,73.9,58.3,43.9,42.8,38.3,33.5,78,50,28,30.05,29.91,6,1,10,0.00
2014-3-23,53.7,44.7,33.7,42.5,38.9,32.5,96,82,49,30.15,29.92,3,0,6,0.18
2014-3-24,51.5,38.5,27.6,32.7,22.7,14.6,96,58,23,30.29,30.08,3,1,6,0.00
2014-3-25,40.6,36.9,32.9,38.4,32.7,25.0,94,85,69,30.08,29.79,2,0,4,0.13
2014-3-26,48.1,35.8,27.0,25.0,18.5,11.2,76,52,23,30.33,30.00,5,1,8,0.01
2014-3-27,59.0,41.2,24.1,36.9,23.4,18.2,87,55,23,30.47,30.27,5,1,10,0.00
2014-3-28,63.3,53.7,44.8,57.2,49.6,36.9,97,86,66,30.28,30.10,4,1,8,0.09
2014-3-29,63.9,58.6,54.4,62.2,57.4,50.0,98,96,83,30.11,29.56,6,0,7,0.21
2014-3-30,56.9,49.8,41.8,50.0,34.2,27.6,84,57,35,29.99,29.60,5,2,11,0.02
2014-3-31,74.6,52.2,33.6,38.2,28.4,17.9,84,48,13,30.13,29.98,3,1,6,0.00
2014-4-1,80.8,58.6,37.9,43.4,36.4,31.3,90,52,18,30.14,29.98,5,1,8,0.00
2014-4-2,85.7,64.1,44.5,46.0,41.3,35.7,85,51,18,30.08,29.97,5,1,7,0.00
2014-4-3,78.7,60.9,48.8,55.1,47.8,39.5,80,63,39,30.10,29.87,2,0,5,0.01
2014-4-4,77.7,66.3,48.7,59.6,52.6,45.3,92,63,46,29.89,29.70,8,2,18,0.00
2014-4-5,69.7,59.6,49.4,52.3,39.2,27.9,87,50,22,30.06,29.78,3,1,9,0.00
2014-4-6,59.3,52.4,44.5,39.8,33.4,28.6,66,49,38,30.20,30.06,4,1,8,0.00
2014-4-7,59.4,50.4,43.1,58.0,47.8,39.2,97,92,57,30.07,29.65,4,1,7,1.51
2014-4-8,67.1,60.2,53.3,59.4,49.7,39.6,97,71,40,29.70,29.57,3,1,9,0.30
2014-4-9,67.0,55.7,44.2,47.1,40.7,35.7,90,60,32,30.10,29.69,3,1,7,0.01
2014-4-10,73.0,56.0,36.9,42.4,37.8,34.6,95,57,27,30.27,30.10,5,1,9,0.00
2014-4-11,76.7,62.4,45.0,49.2,43.9,38.7,84,54,28,30.19,30.03,7,2,14,0.00
2014-4-12,80.9,64.4,48.7,55.8,50.2,46.5,95,64,33,30.20,30.07,3,0,7,0.00
2014-4-13,80.4,68.6,57.2,59.2,55.3,50.3,83,64,44,30.18,30.03,4,1,9,0.00
2014-4-14,73.9,66.7,61.0,63.9,59.8,54.9,93,79,59,30.06,29.78,3,1,8,0.00
2014-4-15,67.5,57.8,37.0,64.6,55.1,31.7,96,91,75,30.02,29.58,5,1,7,0.85
2014-4-16,55.4,42.1,31.2,35.2,28.0,23.6,82,60,32,30.45,30.02,3,1,8,0.43
2014-4-17,63.5,46.5,31.7,38.4,32.1,27.7,91,62,27,30.57,30.41,3,1,5,0.00
2014-4-18,58.8,48.9,40.3,48.5,41.5,36.1,94,77,54,30.44,30.22,3,0,6,0.13
2014-4-19,58.5,51.0,45.9,49.5,46.4,44.0,96,85,59,30.23,30.14,5,1,9,0.44
2014-4-20,69.2,57.3,48.8,49.0,39.9,33.1,94,56,29,30.28,30.18,5,2,7,0.04
2014-4-21,74.9,56.6,41.0,45.8,36.6,24.4,86,54,16,30.19,29.92,2,0,7,0.00
2014-4-22,79.5,62.5,48.9,59.7,51.7,43.2,91,70,39,29.92,29.68,5,1,9,0.01
2014-4-23,74.1,60.9,48.7,57.2,39.6,25.7,90,52,17,29.98,29.70,4,1,8,0.00
2014-4-24,73.1,55.7,39.7,47.0,39.3,34.5,90,58,29,30.14,29.97,3,0,6,0.00
2014-4-25,79.0,59.9,47.6,67.4,54.7,45.0,96,84,56,29.97,29.66,6,1,9,0.09
2014-4-26,79.8,63.7,45.9,52.6,47.3,41.3,94,61,26,30.00,29.85,5,1,9,0.00
2014-4-27,86.0,68.2,48.5,57.0,50.9,45.3,93,59,28,29.99,29.87,2,0,8,0.00
2014-4-28,70.9,61.8,55.1,58.7,55.0,51.4,89,79,61,29.97,29.88,2,0,4,0.00
2014-4-29,58.4,54.7,51.7,56.2,53.3,50.6,97,95,88,30.02,29.89,1,0,2,0.00
2014-4-30,78.1,66.4,55.2,71.2,62.5,54.4,98,88,72,30.02,29.84,3,0,8,0.52
2014-5-1,78.9,70.0,58.1,64.1,57.9,44.8,88,67,41,29.87,29.74,6,1,12,0.00
2014-5-2,70.1,58.3,47.7,50.1,45.4,40.3,91,65,38,29.94,29.82,3,0,7,0.00
2014-5-3,75.0,61.7,48.9,50.7,47.0,41.4,95,63,30,29.91,29.83,5,1,13,0.00
2014-5-4,85.3,67.2,48.0,55.5,48.8,44.8,93,56,26,30.00,29.81,6,1,12,0.00
2014-5-5,82.0,65.8,53.5,63.0,55.5,50.4,91,71,50,29.99,29.80,2,0,4,0.00
2014-5-6,86.9,66.9,50.8,62.2,54.5,49.1,96,69,30,29.95,29.85,3,0,8,0.00
2014-5-7,79.4,67.9,60.4,67.0,62.1,58.6,95,83,61,30.12,29.95,3,0,4,0.00
2014-5-8,88.6,71.8,55.5,62.5,57.1,50.3,98,67,27,30.18,30.05,5,1,10,0.00
2014-5-9,87.2,69.3,58.3,69.7,61.5,56.1,96,79,42,30.13,30.00,8,1,14,0.29
2014-5-10,81.3,67.7,61.8,71.4,63.4,59.7,97,87,61,30.08,29.98,5,1,12,0.22
2014-5-11,84.3,69.7,57.3,67.3,60.9,56.5,98,77,41,30.14,30.02,2,0,4,0.00
2014-5-12,88.4,72.3,56.8,69.3,62.8,55.7,98,75,43,30.17,30.08,3,0,6,0.00
2014-5-13,89.7,75.3,62.0,74.1,66.0,60.8,97,76,45,30.13,30.04,3,0,8,0.00
2014-5-14,85.9,75.0,66.7,71.8,65.5,61.0,93,74,49,30.13,30.01,3,0,7,0.00
2014-5-15,70.1,67.8,60.3,68.2,65.6,59.2,97,93,78,30.06,29.80,3,0,8,1.94
2014-5-16,70.9,60.2,51.1,59.2,49.2,42.5,96,70,42,30.06,29.83,4,1,12,0.00
2014-5-17,69.3,57.7,42.0,54.4,44.7,39.3,93,64,41,30.18,30.05,4,1,9,0.00
2014-5-18,67.6,57.5,48.5,53.6,47.7,43.2,92,71,44,30.23,30.16,1,0,4,0.00
2014-5-19,71.4,58.0,45.4,55.1,49.1,44.3,97,75,45,30.31,30.20,1,0,5,0.00
2014-5-20,78.6,63.9,47.7,60.9,55.1,46.3,97,75,49,30.28,30.08,4,1,8,0.00
2014-5-21,85.6,72.9,63.0,66.4,62.3,59.4,92,72,45,30.09,29.92,4,1,8,0.00
2014-5-22,86.9,74.9,66.1,66.8,63.6,60.5,90,70,45,29.95,29.83,3,1,7,0.00
2014-5-23,83.4,72.6,62.9,67.0,61.5,50.5,95,71,42,30.02,29.90,4,1,7,0.00
2014-5-24,80.3,66.9,52.8,58.0,51.1,45.6,91,60,31,30.12,30.00,2,0,5,0.00
2014-5-25,80.6,67.7,54.3,62.9,57.6,52.6,96,73,45,30.18,30.09,3,0,4,0.00
2014-5-26,85.6,72.3,59.1,68.0,63.3,57.4,97,76,50,30.18,30.03,4,1,8,0.00
2014-5-27,84.8,71.9,65.6,71.2,67.5,64.1,96,87,56,30.08,29.95,3,0,6,0.25
2014-5-28,87.9,74.7,63.0,71.3,66.5,62.1,98,79,46,30.01,29.91,3,0,6,0.01
2014-5-29,83.6,72.4,63.6,71.9,66.7,62.3,97,83,65,30.08,29.95,1,0,2,0.00
2014-5-30,78.8,70.1,67.0,69.5,66.3,64.7,94,88,72,30.11,30.02,1,0,2,0.04
2014-5-31,81.0,71.0,63.8,67.4,62.9,56.6,97,78,51,30.18,30.09,1,0,4,0.29
2014-6-1,78.4,67.4,58.4,60.2,56.6,53.3,93,70,42,30.32,30.18,2,0,4,0.00
2014-6-2,80.4,66.2,52.0,61.9,56.8,50.6,97,74,46,30.28,30.10,3,0,7,0.00
2014-6-3,85.0,70.4,55.7,71.9,62.1,54.3,97,77,53,30.12,29.93,3,0,5,0.01
2014-6-4,88.8,76.9,64.0,71.5,66.6,61.9,95,73,47,29.93,29.73,4,1,8,0.00
2014-6-5,87.9,78.6,68.9,71.3,68.4,63.2,89,72,49,29.84,29.69,5,1,8,0.00
2014-6-6,85.4,72.7,61.4,67.4,62.0,56.7,89,71,42,29.93,29.82,2,0,4,0.00
2014-6-7,85.1,72.2,61.2,68.6,63.8,59.8,97,77,49,30.01,29.92,2,0,6,0.00
2014-6-8,82.3,70.7,63.8,70.7,66.4,62.1,96,87,63,29.96,29.84,4,0,8,0.45
2014-6-9,84.9,72.6,66.9,73.1,68.5,65.7,97,88,61,29.92,29.83,3,0,6,0.99
2014-6-10,91.1,76.5,64.5,74.9,69.8,63.6,98,82,51,29.94,29.85,6,0,9,0.00
2014-6-11,89.4,76.0,66.8,72.2,67.4,64.8,96,77,48,29.94,29.78,4,0,15,0.55
2014-6-12,84.7,73.8,67.4,72.6,68.4,65.9,97,84,57,29.91,29.78,3,0,6,0.01
2014-6-13,84.0,73.7,65.2,71.9,67.8,64.0,97,83,59,29.85,29.77,3,0,6,0.00
2014-6-14,86.0,73.3,63.0,68.5,63.5,58.4,94,74,42,30.05,29.85,2,0,3,0.00
2014-6-15,86.0,71.4,58.1,70.4,64.0,56.7,96,79,52,30.17,30.04,2,0,4,0.00
2014-6-16,91.8,77.9,66.0,74.9,69.4,64.8,97,78,48,30.17,30.06,4,0,9,0.00
2014-6-17,92.3,79.6,68.8,76.0,70.9,67.3,96,77,52,30.14,30.03,3,0,6,0.00
2014-6-18,94.0,81.1,68.8,75.0,69.8,66.8,94,71,43,30.09,30.00,3,1,6,0.00
2014-6-19,92.3,77.5,67.8,75.3,69.8,62.4,95,79,53,30.07,29.97,4,0,14,0.01
2014-6-20,90.8,78.2,67.0,74.1,69.4,65.8,97,77,46,30.02,29.89,3,0,7,0.00
2014-6-21,87.4,77.0,68.4,75.5,71.2,67.2,97,84,57,29.91,29.77,3,0,7,0.03
2014-6-22,85.0,75.8,68.6,72.5,69.1,66.8,95,81,60,29.96,29.80,1,0,3,0.00
2014-6-23,85.9,75.0,67.2,71.3,67.6,65.4,95,79,55,30.09,29.96,1,0,3,0.00
2014-6-24,83.8,75.2,66.8,73.0,69.2,65.2,96,82,65,30.11,29.98,2,0,7,0.00
2014-6-25,88.6,76.9,70.2,74.7,71.1,68.7,96,84,57,29.99,29.86,4,1,11,0.58
2014-6-26,91.2,77.6,66.3,72.5,68.4,64.2,98,77,42,29.98,29.88,2,0,6,0.00
2014-6-27,87.1,75.6,70.3,75.7,70.5,67.3,96,85,61,30.08,29.95,1,0,3,0.23
2014-6-28,84.9,75.2,69.6,72.4,69.9,66.1,97,85,58,30.20,30.08,1,0,3,0.00
2014-6-29,84.1,73.5,64.0,67.4,62.7,56.0,90,71,43,30.22,30.10,3,0,3,0.00
2014-6-30,88.3,75.1,63.3,73.8,68.0,61.8,97,80,54,30.10,29.93,3,0,8,0.00
2014-7-1,90.8,79.3,69.4,76.5,72.1,68.2,97,80,57,29.97,29.85,3,1,6,0.00
2014-7-2,93.9,82.9,73.1,78.2,73.7,71.5,95,76,53,29.92,29.87,3,1,7,0.00
2014-7-3,91.4,78.2,71.9,77.2,72.0,68.4,95,82,55,29.98,29.82,3,0,5,0.03
2014-7-4,85.7,74.9,65.9,68.4,60.7,51.9,89,64,32,30.17,29.90,2,0,7,0.00
2014-7-5,84.6,70.6,56.8,58.3,54.6,52.5,89,60,34,30.27,30.16,2,0,5,0.00
2014-7-6,87.9,72.6,57.6,67.4,60.6,55.6,95,70,35,30.18,30.01,4,1,7,0.00
2014-7-7,91.6,78.5,65.1,71.4,66.3,62.4,97,70,39,30.04,29.89,5,1,9,0.00
2014-7-8,94.3,80.5,69.9,71.6,67.2,61.7,92,68,35,30.00,29.84,6,2,8,0.00
2014-7-9,91.3,76.0,70.2,72.7,69.4,66.3,97,82,45,29.99,29.90,4,0,7,0.51
2014-7-10,84.5,74.4,69.1,74.5,70.6,68.2,97,89,64,30.08,29.97,1,0,1,0.03
2014-7-11,88.3,75.3,67.6,72.5,69.4,66.4,97,83,52,30.18,30.07,1,0,4,0.00
2014-7-12,91.5,76.8,65.3,72.8,67.3,64.2,98,76,43,30.20,30.09,2,0,4,0.00
2014-7-13,92.3,78.9,67.4,73.5,68.5,65.3,97,73,46,30.12,29.97,3,1,5,0.00
2014-7-14,96.5,81.8,71.3,74.5,70.1,66.2,92,71,38,29.99,29.82,5,1,8,0.00
2014-7-15,89.2,76.1,70.1,74.6,71.1,67.8,97,85,56,29.85,29.72,2,0,5,1.19
2014-7-16,82.6,71.8,64.1,69.6,64.4,59.3,97,79,46,29.92,29.76,1,0,5,0.01
2014-7-17,84.3,70.6,56.8,63.9,59.2,54.8,94,70,42,30.08,29.92,1,0,5,0.00
2014-7-18,84.3,72.0,61.0,68.3,63.7,59.6,96,77,52,30.17,30.08,1,0,6,0.00
2014-7-19,79.2,70.3,64.7,67.8,64.4,59.9,96,83,54,30.16,30.07,1,0,4,0.08
2014-7-20,78.0,70.0,64.6,72.4,67.5,63.1,96,92,81,30.12,30.02,1,0,2,0.04
2014-7-21,76.1,72.2,68.8,74.3,70.8,67.6,97,96,91,30.13,30.04,0,0,3,0.17
2014-7-22,84.7,74.5,67.9,75.3,70.9,67.0,98,89,69,30.16,30.05,2,0,4,0.00
2014-7-23,91.2,78.4,67.2,76.3,71.3,66.3,98,81,54,30.08,29.88,3,1,6,0.00
2014-7-24,88.1,76.5,67.8,76.6,71.1,66.1,96,85,59,29.95,29.79,4,0,7,0.03
2014-7-25,81.8,70.5,65.6,71.1,67.2,64.4,97,90,69,30.04,29.94,1,0,2,0.00
2014-7-26,90.0,77.0,67.4,75.8,70.1,66.2,97,81,48,30.01,29.90,3,1,5,0.00
2014-7-27,90.0,78.9,68.4,75.9,71.7,66.9,96,80,55,29.92,29.73,4,1,7,0.01
2014-7-28,87.5,77.3,66.5,71.9,64.2,56.7,94,67,39,29.86,29.73,7,2,12,0.06
2014-7-29,81.6,69.8,58.4,62.5,59.3,56.0,95,71,45,29.97,29.85,2,0,6,0.00
2014-7-30,82.1,69.9,58.8,66.6,62.4,57.2,96,79,54,30.07,29.97,1,0,5,0.00
2014-7-31,78.5,70.5,62.3,70.7,65.9,61.1,97,86,64,30.14,30.05,1,0,4,0.27
2014-8-1,68.7,66.3,64.0,67.8,65.3,63.1,97,97,96,30.13,30.06,1,0,2,0.93
2014-8-2,71.1,66.2,62.4,67.7,64.5,61.5,98,94,86,30.13,30.06,0,0,2,0.01
2014-8-3,84.9,71.7,63.4,71.4,66.7,62.5,98,86,54,30.12,30.01,2,0,4,0.00
2014-8-4,86.2,73.9,64.3,71.3,67.6,63.4,98,82,57,30.09,30.00,1,0,5,0.00
2014-8-5,88.8,74.8,64.0,73.1,67.7,62.9,98,81,46,30.06,29.95,2,0,4,0.00
2014-8-6,89.3,77.0,65.9,71.2,67.0,59.6,97,74,38,29.98,29.89,3,0,6,0.00
2014-8-7,88.1,75.6,65.6,71.7,67.4,64.4,97,78,49,30.01,29.90,2,0,6,0.00
2014-8-8,77.7,71.4,65.4,71.2,68.2,64.2,97,90,79,30.11,30.00,0,0,0,0.00
2014-8-9,71.1,68.0,65.1,69.6,66.5,63.8,97,95,93,30.09,30.01,0,0,6,0.31
2014-8-10,72.8,68.2,65.3,70.7,66.9,64.4,97,96,92,30.11,30.03,0,0,1,0.02
2014-8-11,78.7,71.7,68.8,73.4,69.9,67.3,97,94,82,30.06,29.94,0,0,4,0.60
2014-8-12,86.5,75.4,69.2,77.7,72.2,68.3,98,90,69,29.94,29.74,3,0,7,0.01
2014-8-13,79.8,71.8,62.9,71.0,64.1,58.3,98,79,55,29.97,29.80,3,0,7,0.00
2014-8-14,82.7,69.3,55.3,65.4,60.1,54.2,98,75,48,30.04,29.93,3,0,6,0.00
2014-8-15,85.2,70.8,59.6,69.0,63.7,58.4,98,81,51,30.02,29.93,2,0,5,0.00
2014-8-16,87.6,74.1,64.4,68.9,65.2,61.9,97,77,43,30.02,29.95,2,0,6,0.00
2014-8-17,87.4,75.7,66.7,71.1,67.6,64.9,97,79,49,29.99,29.92,2,0,6,0.00
2014-8-18,85.2,73.8,68.8,76.7,70.8,67.9,97,91,71,29.93,29.75,6,0,10,0.99
2014-8-19,87.8,75.2,67.3,75.4,70.6,66.4,98,87,61,29.87,29.76,1,0,3,0.00
2014-8-20,90.9,77.3,69.2,76.6,71.9,68.2,98,85,54,30.00,29.85,2,0,5,0.00
2014-8-21,90.1,78.1,68.7,73.2,70.1,67.7,97,79,52,30.07,29.96,3,0,6,0.00
2014-8-22,92.0,78.7,68.0,76.9,71.6,66.8,97,81,53,30.02,29.91,2,0,6,0.00
2014-8-23,89.9,78.4,71.3,76.5,72.8,69.8,96,84,61,29.95,29.86,1,0,4,0.00
2014-8-24,78.7,73.5,70.2,71.2,67.3,63.9,91,81,66,30.09,29.93,1,0,5,0.00
2014-8-25,82.0,69.7,57.8,64.7,60.6,56.4,97,75,47,30.12,30.05,1,0,5,0.00
2014-8-26,83.2,69.4,58.0,63.9,60.5,56.9,97,77,45,30.15,30.06,1,0,5,0.00
2014-8-27,88.8,71.7,58.6,65.9,60.7,54.6,98,73,32,30.08,29.95,2,0,6,0.00
2014-8-28,92.6,75.8,63.3,73.8,66.8,61.4,96,77,46,30.00,29.92,2,0,6,0.00
2014-8-29,81.1,74.8,70.4,72.4,69.9,66.7,94,85,72,30.14,29.99,1,0,6,0.00
2014-8-30,91.6,79.1,71.6,75.8,71.7,69.5,96,80,50,30.18,30.07,3,0,6,0.00
2014-8-31,90.8,78.7,70.1,75.5,72.2,68.8,97,82,57,30.16,30.01,4,0,7,0.00
2014-9-1,94.2,79.8,69.1,74.8,69.5,65.7,97,75,40,30.08,29.99,4,1,8,0.00
2014-9-2,95.5,78.7,67.7,74.8,69.7,66.4,97,77,39,30.04,29.90,3,0,8,0.20
2014-9-3,90.5,77.8,69.7,73.8,70.5,68.5,98,81,52,30.09,29.94,2,0,6,0.58
2014-9-4,86.5,76.3,68.5,76.9,72.1,67.6,98,88,64,30.17,30.07,3,0,5,0.14
2014-9-5,90.6,75.7,68.6,76.4,71.4,67.7,98,88,54,30.18,30.05,4,0,12,0.04
2014-9-6,90.8,77.2,67.4,74.9,70.8,66.5,98,82,52,30.07,29.90,2,0,6,0.00
2014-9-7,82.1,74.1,68.1,72.3,69.1,66.7,97,85,68,30.08,29.94,1,0,3,0.00
2014-9-8,71.4,67.1,64.4,66.7,65.4,63.2,97,94,84,30.11,30.03,1,0,5,0.15
2014-9-9,77.8,68.6,62.9,70.3,65.7,62.0,97,91,75,30.13,30.05,1,0,4,0.01
2014-9-10,78.4,70.1,63.5,70.5,66.6,62.6,98,89,70,30.12,30.00,0,0,0,0.00
2014-9-11,89.1,75.1,64.7,74.9,69.4,63.5,98,84,58,30.03,29.90,0,0,0,0.00
2014-9-12,81.9,74.2,69.6,74.7,70.3,66.9,97,88,77,30.07,29.95,0,0,0,0.00
2014-9-13,80.1,71.8,64.2,73.5,68.0,57.5,97,88,75,30.17,30.01,0,0,0,0.16
2014-9-14,71.5,65.8,63.2,61.3,58.9,56.9,87,79,66,30.26,30.16,0,0,0,0.00
2014-9-15,73.6,69.3,63.2,67.3,64.4,59.6,94,85,75,30.21,30.09,0,0,0,0.00
2014-9-16,84.7,72.4,66.8,69.1,66.8,65.3,97,84,56,30.08,29.90,1,0,4,0.52
2014-9-17,76.9,67.5,62.5,67.4,64.0,61.0,97,89,68,29.98,29.88,1,0,1,0.00
2014-9-18,77.1,67.9,60.0,68.3,63.6,59.1,98,87,66,30.04,29.92,0,0,0,0.01
2014-9-19,77.9,68.1,63.0,65.4,63.3,61.3,96,86,60,30.22,30.03,0,0,0,0.02
2014-9-20,81.1,67.1,58.3,63.0,60.5,57.2,97,81,49,30.22,30.00,0,0,0,0.00
2014-9-21,85.8,70.3,57.1,68.8,62.5,56.0,97,79,52,30.00,29.77,1,0,1,0.26
2014-9-22,76.2,65.5,55.7,66.1,57.8,54.4,97,78,47,30.15,29.85,1,0,4,0.00
2014-9-23,61.2,57.8,54.4,55.0,51.3,49.0,90,79,70,30.33,30.14,1,0,5,0.01
2014-9-24,61.8,58.3,54.2,59.5,55.4,50.1,97,90,81,30.35,30.23,2,0,6,0.17
2014-9-25,69.8,63.9,60.4,64.6,61.6,59.5,97,93,82,30.25,30.17,1,0,4,0.03
2014-9-26,72.6,65.2,59.9,65.4,62.3,58.8,96,90,76,30.22,30.15,1,0,4,0.01
2014-9-27,77.2,64.3,55.4,62.0,58.5,54.6,98,83,54,30.23,30.14,1,0,4,0.00
2014-9-28,78.2,64.2,54.1,63.8,59.0,53.3,98,85,55,30.20,30.07,1,0,2,0.00
2014-9-29,67.1,64.4,62.1,65.0,62.8,60.7,97,95,91,30.07,29.94,1,0,2,0.14
2014-9-30,81.8,67.9,60.9,67.9,63.0,60.0,98,86,51,29.95,29.83,1,0,4,0.00
2014-10-1,77.6,64.9,56.9,67.6,62.0,56.1,98,91,68,30.03,29.89,0,0,2,0.02
2014-10-2,81.0,67.1,57.5,70.6,63.1,56.7,98,88,64,30.11,30.00,0,0,0,0.00
2014-10-3,79.8,68.8,60.4,69.4,64.8,59.5,98,88,58,30.03,29.73,3,0,9,0.03
2014-10-4,70.5,61.5,44.2,68.7,48.2,31.1,96,66,29,29.90,29.68,5,1,10,0.00
2014-10-5,65.6,49.9,36.3,42.1,37.9,34.7,97,68,34,30.03,29.86,5,1,9,0.00
2014-10-6,76.0,57.4,40.2,52.4,46.4,39.2,97,71,41,30.08,29.97,4,1,9,0.00
2014-10-7,77.3,64.4,51.1,59.7,55.0,49.4,96,73,49,30.12,29.95,4,1,9,0.00
2014-10-8,84.0,69.5,59.6,65.3,57.8,50.7,92,69,34,30.05,29.92,5,1,10,0.00
2014-10-9,82.3,64.2,49.0,58.0,52.3,47.3,96,70,36,30.16,30.04,3,0,6,0.00
2014-10-10,84.7,68.2,55.3,68.9,61.6,53.9,96,82,51,30.09,29.93,5,1,10,0.01
2014-10-11,82.9,69.3,58.7,70.4,65.8,56.4,97,90,61,30.08,29.92,4,0,7,0.21
2014-10-12,58.7,57.2,55.3,57.7,55.8,53.7,97,95,91,30.23,30.07,1,0,2,0.06
2014-10-13,74.4,64.0,58.2,69.7,62.6,57.4,98,96,84,30.25,30.12,1,0,2,0.02
2014-10-14,81.4,73.5,67.0,71.4,69.2,66.1,97,87,69,30.12,29.81,2,1,10,0.00
2014-10-15,74.0,63.4,54.7,69.2,57.9,50.9,97,84,49,29.85,29.75,4,1,11,0.94
2014-10-16,68.3,57.8,50.7,56.5,52.1,48.7,96,83,59,29.86,29.76,3,0,7,0.00
2014-10-17,75.1,59.0,46.2,55.6,50.9,45.1,98,77,46,29.93,29.79,4,1,7,0.00
2014-10-18,72.1,60.2,49.9,56.9,50.5,46.4,98,73,44,29.93,29.75,4,1,6,0.00
2014-10-19,68.5,54.5,43.5,46.9,43.9,41.5,95,71,38,30.13,29.93,3,0,7,0.00
2014-10-20,71.3,53.5,39.0,52.5,46.0,38.0,98,79,46,30.15,29.97,4,0,9,0.00
2014-10-21,72.7,58.1,45.1,53.0,47.1,41.0,97,70,39,29.97,29.83,4,1,8,0.00
2014-10-22,65.4,52.2,39.4,45.5,42.1,37.6,96,70,47,30.06,29.94,3,1,11,0.00
2014-10-23,70.1,53.1,39.8,47.1,42.9,38.5,96,72,41,30.06,29.95,3,0,7,0.00
2014-10-24,69.5,52.5,39.8,48.8,43.3,38.5,97,75,36,30.07,29.96,1,0,4,0.00
2014-10-25,75.4,53.4,35.9,46.0,40.6,34.6,97,69,25,30.05,29.89,2,0,6,0.00
2014-10-26,79.6,60.9,46.0,55.1,44.8,34.1,93,62,20,29.97,29.84,3,1,7,0.00
2014-10-27,80.7,56.6,39.3,49.5,42.0,35.9,95,65,26,30.12,29.97,3,0,6,0.00
2014-10-28,83.6,62.1,46.3,63.0,53.2,44.9,98,76,38,30.13,30.01,5,1,10,0.00
2014-10-29,76.5,62.9,53.0,59.2,55.9,51.1,95,80,48,30.01,29.90,4,0,7,0.13
2014-10-30,67.0,54.7,43.7,51.9,43.7,37.7,96,70,34,30.03,29.95,2,0,4,0.00
2014-10-31,59.5,49.4,41.6,47.2,43.0,37.7,94,79,60,29.98,29.78,1,0,3,0.22
2014-11-1,50.8,45.8,41.8,45.6,41.3,35.4,97,85,66,30.00,29.71,5,1,8,0.54
2014-11-2,53.5,41.5,31.4,36.3,27.9,21.2,86,61,30,30.34,30.00,4,1,11,0.00
2014-11-3,65.7,44.3,27.5,36.7,28.6,18.7,95,62,17,30.45,30.33,3,0,6,0.00
2014-11-4,66.7,50.9,37.1,42.0,37.0,30.2,91,63,27,30.35,30.23,4,0,11,0.00
2014-11-5,69.8,55.4,45.8,52.4,45.9,39.2,94,72,47,30.29,30.11,3,0,6,0.00
2014-11-6,65.8,58.3,46.3,60.9,54.0,36.7,95,86,59,30.12,29.71,4,1,9,0.28
2014-11-7,58.8,46.7,36.1,40.4,37.1,33.4,91,71,41,30.07,29.86,3,1,6,0.00
2014-11-8,58.7,43.2,30.7,41.8,35.8,29.4,97,78,47,30.11,29.96,3,0,7,0.00
2014-11-9,63.9,47.0,38.5,44.1,40.1,37.0,97,80,43,30.04,29.93,1,0,4,0.00
2014-11-10,67.7,47.5,34.3,48.2,40.2,33.3,98,79,42,30.14,30.03,1,0,4,0.00
2014-11-11,74.8,54.6,40.7,56.9,48.4,39.1,96,82,50,30.07,29.90,1,0,5,0.00
2014-11-12,75.2,57.4,42.8,54.6,46.9,40.8,98,72,41,30.03,29.91,2,0,6,0.00
2014-11-13,55.8,50.0,41.8,40.3,38.1,31.7,79,64,54,30.06,29.95,2,0,5,0.00
2014-11-14,42.6,35.2,25.7,33.4,22.2,16.2,90,60,37,30.35,30.06,3,1,7,0.00
2014-11-15,45.0,31.5,23.3,23.5,18.8,15.7,85,62,34,30.48,30.35,1,0,4,0.00
2014-11-16,52.6,41.8,26.6,39.1,29.0,22.1,88,63,33,30.40,30.04,2,0,4,0.00
2014-11-17,51.7,45.1,36.0,50.9,43.1,30.7,97,93,79,30.04,29.61,3,0,7,0.48
2014-11-18,37.4,29.8,21.3,30.8,16.9,10.7,83,60,34,30.33,29.90,5,1,7,0.00
2014-11-19,42.0,29.3,16.1,23.3,16.3,12.6,91,62,34,30.43,30.23,3,0,9,0.00
2014-11-20,57.2,40.4,26.2,32.7,26.4,18.4,88,60,36,30.23,30.04,6,1,10,0.00
2014-11-21,49.6,35.3,25.8,27.1,20.6,10.7,90,61,21,30.55,30.17,3,0,7,0.00
2014-11-22,55.1,34.8,20.3,27.6,21.3,16.2,90,63,25,30.60,30.33,2,0,6,0.00
2014-11-23,62.2,48.4,34.1,61.2,43.9,27.8,97,85,66,30.33,29.70,2,0,3,0.70
2014-11-24,73.3,64.7,58.2,62.1,59.0,55.0,96,83,57,29.87,29.68,6,2,11,0.00
2014-11-25,65.3,57.5,47.1,62.1,49.2,41.7,96,75,55,30.08,29.85,3,0,15,0.08
2014-11-26,46.9,42.4,35.0,45.2,40.7,34.0,98,94,85,30.07,29.92,3,1,6,0.80
2014-11-27,47.8,40.2,33.7,42.0,36.2,25.0,98,86,62,30.30,29.97,4,0,6,0.07
2014-11-28,44.8,32.8,24.7,29.5,24.2,21.6,94,73,41,30.41,30.28,3,0,7,0.00
2014-11-29,55.1,37.7,26.7,33.7,29.7,25.2,95,76,40,30.34,30.22,3,0,8,0.00
2014-11-30,65.7,48.0,30.1,50.4,40.8,28.6,96,77,57,30.31,30.20,4,1,8,0.00
2014-12-1,74.4,53.8,38.2,52.1,45.9,36.9,97,78,44,30.36,30.24,3,0,6,0.00
2014-12-2,50.7,43.4,40.5,49.5,41.4,39.7,97,93,84,30.44,30.29,3,1,6,0.00
2014-12-3,56.1,46.9,40.4,54.1,46.0,39.6,98,96,92,30.34,30.17,4,0,10,0.01
2014-12-4,53.8,46.5,38.6,47.1,41.8,35.7,98,84,69,30.42,30.27,3,0,4,0.00
2014-12-5,47.4,44.7,39.8,42.8,39.1,35.9,95,81,67,30.49,30.35,0,0,1,0.00
2014-12-6,51.2,46.6,39.3,50.1,45.5,38.0,97,96,88,30.35,30.04,1,0,5,0.02
2014-12-7,52.2,46.3,37.3,46.6,31.8,20.9,88,60,31,30.45,30.14,5,2,9,0.00
2014-12-8,41.7,37.5,35.7,35.5,29.1,21.5,96,73,55,30.44,30.18,6,1,9,0.01
2014-12-9,53.0,43.4,36.1,43.0,38.3,34.9,97,83,64,30.17,29.92,2,0,5,0.00
2014-12-10,50.1,39.6,33.4,35.1,29.9,24.3,92,70,45,30.03,29.97,3,0,10,0.00
2014-12-11,49.8,36.4,26.3,25.0,21.8,17.5,83,58,29,30.16,29.99,4,1,7,0.00
2014-12-12,57.8,40.8,27.9,24.3,20.8,17.2,78,47,22,30.25,30.13,4,1,9,0.00
2014-12-13,63.1,42.7,29.3,29.6,24.2,17.4,80,54,19,30.17,30.04,2,0,6,0.00
2014-12-14,59.8,40.6,26.6,36.7,30.1,24.0,93,69,37,30.09,30.01,2,0,6,0.00
2014-12-15,59.6,40.2,28.8,41.3,33.8,27.3,97,80,44,30.15,30.05,2,0,3,0.00
2014-12-16,51.5,42.3,31.1,49.5,40.8,29.6,97,94,91,30.07,29.88,2,0,5,0.07
2014-12-17,59.5,44.1,34.2,43.0,36.6,32.0,98,78,43,30.12,30.01,3,0,6,0.01
2014-12-18,50.9,40.5,31.0,33.4,28.8,21.2,93,66,33,30.20,30.08,1,0,4,0.00
2014-12-19,53.6,42.4,31.7,34.4,29.6,20.6,87,63,31,30.21,30.10,2,0,5,0.00
2014-12-20,40.4,38.1,35.4,36.4,33.1,29.1,93,83,69,30.29,30.20,2,0,2,0.00
2014-12-21,47.4,42.0,38.2,39.5,37.4,35.4,92,84,71,30.32,30.21,1,0,2,0.00
2014-12-22,42.2,36.7,35.0,36.4,35.2,33.7,97,94,77,30.22,30.03,2,1,5,0.23
2014-12-23,45.4,40.5,36.0,44.9,39.9,35.2,98,97,97,30.10,29.93,1,0,3,0.18
2014-12-24,63.0,51.2,43.8,62.1,50.5,43.3,98,97,87,29.94,29.63,5,1,8,0.91
2014-12-25,60.1,48.1,31.6,56.2,41.2,30.1,94,78,50,30.26,29.64,5,1,12,0.00
2014-12-26,59.7,39.3,27.0,39.0,32.5,26.0,98,80,41,30.38,30.24,3,0,7,0.00
2014-12-27,64.1,45.2,30.2,43.1,37.3,28.9,97,77,40,30.34,30.18,3,0,6,0.00
2014-12-28,62.5,53.3,46.0,56.6,48.6,41.1,97,84,70,30.17,29.97,5,1,8,0.00
2014-12-29,52.8,47.3,38.9,51.7,46.4,38.0,97,97,94,30.19,30.02,3,1,5,0.37
2014-12-30,39.8,35.9,28.1,38.1,34.0,27.1,97,93,82,30.46,30.18,3,1,6,0.05
2014-12-31,45.0,33.2,26.9,31.6,26.6,22.2,98,79,41,30.49,30.37,2,0,7,0.00
2015-1-1,52.2,36.9,22.0,35.7,27.8,20.5,95,72,44,30.37,30.22,4,1,7,0.00
2015-1-2,53.3,46.3,37.9,42.7,38.8,35.1,92,76,60,30.37,30.22,1,0,8,0.00